createdAt,value
2023-05-23T00:01:14.660Z,15.10
2023-05-23T00:03:41.620Z,15.00
2023-05-23T00:06:08.874Z,14.90
2023-05-23T00:08:35.624Z,14.90
2023-05-23T00:11:02.425Z,14.80
2023-05-23T00:13:29.071Z,14.70
2023-05-23T00:15:55.702Z,14.60
2023-05-23T00:18:24.649Z,14.50
2023-05-23T00:20:51.840Z,14.40
2023-05-23T00:23:22.473Z,14.30
2023-05-23T00:25:52.462Z,14.20
2023-05-23T00:28:19.728Z,14.20
2023-05-23T00:30:46.542Z,14.10
2023-05-23T00:33:14.354Z,14.10
2023-05-23T00:35:42.274Z,14.10
2023-05-23T00:38:11.353Z,14.10
2023-05-23T00:40:38.049Z,14.10
2023-05-23T00:43:04.871Z,14.10
2023-05-23T00:45:31.817Z,14.10
2023-05-23T00:48:00.107Z,14.20
2023-05-23T00:50:29.749Z,14.10
2023-05-23T00:52:58.778Z,14.20
2023-05-23T00:55:25.798Z,14.20
2023-05-23T00:57:57.635Z,14.20
2023-05-23T01:00:25.945Z,14.30
2023-05-23T01:02:53.880Z,14.30
2023-05-23T01:05:22.516Z,14.30
2023-05-23T01:07:50.254Z,14.40
2023-05-23T01:10:22.048Z,14.30
2023-05-23T01:13:26.709Z,14.20
2023-05-23T01:16:22.217Z,14.10
2023-05-23T01:18:59.002Z,14.20
2023-05-23T01:21:27.254Z,14.10
2023-05-23T01:24:03.666Z,14.20
2023-05-23T01:26:42.859Z,14.10
2023-05-23T01:29:17.988Z,14.10
2023-05-23T01:31:46.714Z,14.00
2023-05-23T01:34:14.393Z,14.00
2023-05-23T01:36:43.554Z,14.00
2023-05-23T01:39:10.583Z,14.00
2023-05-23T01:41:37.276Z,14.00
2023-05-23T01:44:05.609Z,13.90
2023-05-23T01:46:34.222Z,14.00
2023-05-23T01:49:03.728Z,13.90
2023-05-23T01:51:32.848Z,13.80
2023-05-23T01:53:59.837Z,13.90
2023-05-23T01:56:28.761Z,13.90
2023-05-23T01:58:55.546Z,13.90
2023-05-23T02:01:22.497Z,13.90
2023-05-23T02:03:49.579Z,13.90
2023-05-23T02:06:16.495Z,13.90
2023-05-23T02:08:43.147Z,13.90
2023-05-23T02:11:10.591Z,13.80
2023-05-23T02:13:37.322Z,13.80
2023-05-23T02:16:04.453Z,13.80
2023-05-23T02:18:31.107Z,13.80
2023-05-23T02:20:57.834Z,13.80
2023-05-23T02:23:24.458Z,13.70
2023-05-23T02:25:51.133Z,13.70
2023-05-23T02:28:17.864Z,13.50
2023-05-23T02:30:44.531Z,13.40
2023-05-23T02:33:11.279Z,13.40
2023-05-23T02:35:38.271Z,13.30
2023-05-23T02:38:05.010Z,13.30
2023-05-23T02:40:31.662Z,13.30
2023-05-23T02:42:58.429Z,13.20
2023-05-23T02:45:25.430Z,13.30
2023-05-23T02:47:52.148Z,13.30
2023-05-23T02:50:19.188Z,13.20
2023-05-23T02:52:45.951Z,13.20
2023-05-23T02:55:12.608Z,13.20
2023-05-23T02:57:43.517Z,13.20
2023-05-23T03:00:11.725Z,13.20
2023-05-23T03:02:38.782Z,13.10
2023-05-23T03:05:07.005Z,13.10
2023-05-23T03:07:33.760Z,13.00
2023-05-23T03:10:01.023Z,13.00
2023-05-23T03:12:29.115Z,12.90
2023-05-23T03:14:55.868Z,13.00
2023-05-23T03:17:25.505Z,13.00
2023-05-23T03:19:52.492Z,12.80
2023-05-23T03:22:19.458Z,12.80
2023-05-23T03:24:46.240Z,12.80
2023-05-23T03:27:12.956Z,12.70
2023-05-23T03:29:39.781Z,12.70
2023-05-23T03:32:06.762Z,12.70
2023-05-23T03:34:36.384Z,12.60
2023-05-23T03:37:04.085Z,12.60
2023-05-23T03:39:31.293Z,12.70
2023-05-23T03:41:57.951Z,12.60
2023-05-23T03:44:24.808Z,12.50
2023-05-23T03:46:51.520Z,12.60
2023-05-23T03:49:18.158Z,12.50
2023-05-23T03:51:44.814Z,12.60
2023-05-23T03:54:17.350Z,12.50
2023-05-23T03:56:44.077Z,12.50
2023-05-23T03:59:10.850Z,12.50
2023-05-23T04:01:37.747Z,12.60
2023-05-23T04:04:04.812Z,12.50
2023-05-23T04:06:34.180Z,12.50
2023-05-23T04:09:02.325Z,12.60
2023-05-23T04:11:30.175Z,12.60
2023-05-23T04:13:57.142Z,12.60
2023-05-23T04:16:24.404Z,12.60
2023-05-23T04:18:51.722Z,12.70
2023-05-23T04:21:18.442Z,12.60
2023-05-23T04:23:57.829Z,12.70
2023-05-23T04:26:25.187Z,12.70
2023-05-23T04:28:54.155Z,12.70
2023-05-23T04:31:25.273Z,12.70
2023-05-23T04:33:52.385Z,12.80
2023-05-23T04:36:19.930Z,12.70
2023-05-23T04:38:52.185Z,12.70
2023-05-23T04:41:23.198Z,12.80
2023-05-23T04:44:06.418Z,12.80
2023-05-23T04:46:42.170Z,12.70
2023-05-23T04:49:21.364Z,12.70
2023-05-23T04:51:48.498Z,12.80
2023-05-23T04:54:27.284Z,12.80
2023-05-23T04:56:55.350Z,12.80
2023-05-23T04:59:23.618Z,12.80
2023-05-23T05:01:50.805Z,12.70
2023-05-23T05:04:19.314Z,12.70
2023-05-23T05:06:47.955Z,12.70
2023-05-23T05:09:14.805Z,12.70
2023-05-23T05:11:42.984Z,12.70
2023-05-23T05:14:09.705Z,12.70
2023-05-23T05:16:37.730Z,12.70
2023-05-23T05:19:04.583Z,12.80
2023-05-23T05:21:31.842Z,12.80
2023-05-23T05:23:59.786Z,12.80
2023-05-23T05:26:26.853Z,12.80
2023-05-23T05:28:54.098Z,12.80
2023-05-23T05:31:21.925Z,12.80
2023-05-23T05:33:49.770Z,12.80
2023-05-23T05:36:16.538Z,12.90
2023-05-23T05:38:44.379Z,12.80
2023-05-23T05:41:11.125Z,12.80
2023-05-23T05:43:42.316Z,12.80
2023-05-23T05:46:09.126Z,12.80
2023-05-23T05:48:35.864Z,12.80
2023-05-23T05:51:06.954Z,12.80
2023-05-23T05:53:34.488Z,12.80
2023-05-23T05:56:03.095Z,12.70
2023-05-23T05:58:31.362Z,12.70
2023-05-23T06:01:01.480Z,12.70
2023-05-23T06:03:28.475Z,12.70
2023-05-23T06:05:55.902Z,12.70
2023-05-23T06:08:22.563Z,12.70
2023-05-23T06:10:49.494Z,12.70
2023-05-23T06:13:17.451Z,12.80
2023-05-23T06:15:47.885Z,12.70
2023-05-23T06:18:14.911Z,12.70
2023-05-23T06:20:42.042Z,12.70
2023-05-23T06:23:14.014Z,12.80
2023-05-23T06:25:40.716Z,12.80
2023-05-23T06:28:07.472Z,12.80
2023-05-23T06:30:37.647Z,12.80
2023-05-23T06:33:05.052Z,12.70
2023-05-23T06:35:31.767Z,12.70
2023-05-23T06:38:01.013Z,12.70
2023-05-23T06:40:27.656Z,12.80
2023-05-23T06:42:54.371Z,12.80
2023-05-23T06:45:40.072Z,12.80
2023-05-23T06:48:06.766Z,12.70
2023-05-23T06:50:35.747Z,12.70
2023-05-23T06:53:03.310Z,12.70
2023-05-23T06:55:30.366Z,12.80
2023-05-23T06:57:57.668Z,12.80
2023-05-23T07:00:24.837Z,12.90
2023-05-23T07:03:03.681Z,12.90
2023-05-23T07:05:31.169Z,12.90
2023-05-23T07:07:57.962Z,12.90
2023-05-23T07:10:26.196Z,12.80
2023-05-23T07:12:55.376Z,12.70
2023-05-23T07:15:22.595Z,12.70
2023-05-23T07:17:57.505Z,12.70
2023-05-23T07:20:25.860Z,12.70
2023-05-23T07:22:58.485Z,12.70
2023-05-23T07:25:25.296Z,12.70
2023-05-23T07:27:54.464Z,12.60
2023-05-23T07:30:22.740Z,12.50
2023-05-23T07:32:49.663Z,12.40
2023-05-23T07:35:17.222Z,12.40
2023-05-23T07:37:46.725Z,12.40
2023-05-23T07:40:14.557Z,12.30
2023-05-23T07:42:41.772Z,12.30
2023-05-23T07:45:08.757Z,12.30
2023-05-23T07:47:37.845Z,12.30
2023-05-23T07:50:05.472Z,12.20
2023-05-23T07:52:32.727Z,12.20
2023-05-23T07:55:01.006Z,12.20
2023-05-23T07:57:28.235Z,12.20
2023-05-23T07:59:54.933Z,12.10
2023-05-23T08:02:21.656Z,12.20
2023-05-23T08:04:48.733Z,12.20
2023-05-23T08:07:17.939Z,12.10
2023-05-23T08:09:50.429Z,12.10
2023-05-23T08:12:19.692Z,12.10
2023-05-23T08:14:52.384Z,12.00
2023-05-23T08:17:23.719Z,12.00
2023-05-23T08:19:52.064Z,12.00
2023-05-23T08:22:19.921Z,11.90
2023-05-23T08:24:46.772Z,11.90
2023-05-23T08:27:13.503Z,11.80
2023-05-23T08:29:41.259Z,11.80
2023-05-23T08:32:08.344Z,11.80
2023-05-23T08:34:35.131Z,11.80
2023-05-23T08:37:02.856Z,11.60
2023-05-23T08:39:29.593Z,11.60
2023-05-23T08:42:13.891Z,11.60
2023-05-23T08:44:40.616Z,11.50
2023-05-23T08:47:08.941Z,11.50
2023-05-23T08:49:56.542Z,11.60
2023-05-23T08:52:26.543Z,11.50
2023-05-23T08:54:56.522Z,11.50
2023-05-23T08:57:23.834Z,11.50
2023-05-23T08:59:56.325Z,11.50
2023-05-23T09:02:24.674Z,11.50
2023-05-23T09:04:55.814Z,11.50
2023-05-23T09:07:25.079Z,11.50
2023-05-23T09:09:53.376Z,11.40
2023-05-23T09:12:22.262Z,11.40
2023-05-23T09:14:49.044Z,11.40
2023-05-23T09:17:19.243Z,11.30
2023-05-23T09:19:47.437Z,11.40
2023-05-23T09:22:28.899Z,11.50
2023-05-23T09:25:01.071Z,11.40
2023-05-23T09:27:28.736Z,11.40
2023-05-23T09:29:55.458Z,11.40
2023-05-23T09:32:25.173Z,11.50
2023-05-23T09:34:59.091Z,11.50
2023-05-23T09:37:31.061Z,11.40
2023-05-23T09:40:10.081Z,11.40
2023-05-23T09:42:42.934Z,11.40
2023-05-23T09:45:10.365Z,11.60
2023-05-23T09:47:37.437Z,11.50
2023-05-23T09:50:04.951Z,11.40
2023-05-23T09:52:39.072Z,11.50
2023-05-23T09:55:07.028Z,11.40
2023-05-23T09:57:42.432Z,11.40
2023-05-23T10:00:16.865Z,11.40
2023-05-23T10:02:55.624Z,11.40
2023-05-23T10:05:36.221Z,11.40
2023-05-23T10:08:10.627Z,11.40
2023-05-23T10:11:11.640Z,11.50
2023-05-23T10:13:43.653Z,11.50
2023-05-23T10:16:27.068Z,11.50
2023-05-23T10:18:57.747Z,11.60
2023-05-23T10:21:40.815Z,11.40
2023-05-23T10:24:08.215Z,11.50
2023-05-23T10:26:37.776Z,11.60
2023-05-23T10:29:05.201Z,11.60
2023-05-23T10:31:32.341Z,11.70
2023-05-23T10:34:33.123Z,11.60
2023-05-23T10:37:09.864Z,11.50
2023-05-23T10:39:50.235Z,11.50
2023-05-23T10:42:35.262Z,11.50
2023-05-23T10:45:18.447Z,11.40
2023-05-23T10:47:46.656Z,11.30
2023-05-23T10:50:17.096Z,11.40
2023-05-23T10:52:44.934Z,11.30
2023-05-23T10:55:17.586Z,11.40
2023-05-23T10:57:45.057Z,11.20
2023-05-23T11:00:16.068Z,11.20
2023-05-23T11:03:00.220Z,11.20
2023-05-23T11:05:31.672Z,11.10
2023-05-23T11:08:13.869Z,11.10
2023-05-23T11:10:56.931Z,10.90
2023-05-23T11:13:23.917Z,11.00
2023-05-23T11:15:50.682Z,10.90
2023-05-23T11:18:30.913Z,10.90
2023-05-23T11:20:59.732Z,10.90
2023-05-23T11:23:42.064Z,10.80
2023-05-23T11:26:31.983Z,10.80
2023-05-23T11:29:00.144Z,10.80
2023-05-23T11:31:27.073Z,10.90
2023-05-23T11:33:54.253Z,10.90
2023-05-23T11:36:24.278Z,11.00
2023-05-23T11:38:53.143Z,11.00
2023-05-23T11:41:20.083Z,10.90
2023-05-23T11:43:53.708Z,10.90
2023-05-23T11:46:20.557Z,10.80
2023-05-23T11:48:48.113Z,10.80
2023-05-23T11:51:18.179Z,10.80
2023-05-23T11:53:45.980Z,10.70
2023-05-23T11:56:15.734Z,10.70
2023-05-23T11:58:44.989Z,10.60
2023-05-23T12:01:12.794Z,10.60
2023-05-23T12:03:51.035Z,10.50
2023-05-23T12:06:23.447Z,10.50
2023-05-23T12:08:51.491Z,10.40
2023-05-23T12:11:18.975Z,10.50
2023-05-23T12:13:45.938Z,10.40
2023-05-23T12:16:14.936Z,10.40
2023-05-23T12:18:43.044Z,10.60
2023-05-23T12:21:10.365Z,10.90
2023-05-23T12:23:37.481Z,11.00
2023-05-23T12:26:10.205Z,11.30
2023-05-23T12:28:37.849Z,11.30
2023-05-23T12:31:22.610Z,11.10
2023-05-23T12:33:52.543Z,11.00
2023-05-23T12:36:27.951Z,10.90
2023-05-23T12:39:03.530Z,11.00
2023-05-23T12:41:31.869Z,11.10
2023-05-23T12:43:59.459Z,11.10
2023-05-23T12:46:27.199Z,11.20
2023-05-23T12:48:54.864Z,11.20
2023-05-23T12:51:21.687Z,11.40
2023-05-23T12:53:48.615Z,11.60
2023-05-23T12:56:15.454Z,11.80
2023-05-23T12:58:42.101Z,12.00
2023-05-23T13:01:09.102Z,12.00
2023-05-23T13:03:35.912Z,12.20
2023-05-23T13:06:02.832Z,12.30
2023-05-23T13:08:29.507Z,12.20
2023-05-23T13:10:57.008Z,12.20
2023-05-23T13:13:24.284Z,12.10
2023-05-23T13:15:51.668Z,12.00
2023-05-23T13:18:18.913Z,12.10
2023-05-23T13:20:46.224Z,12.20
2023-05-23T13:23:12.949Z,12.30
2023-05-23T13:25:40.185Z,12.70
2023-05-23T13:28:07.044Z,13.10
2023-05-23T13:30:34.596Z,13.40
2023-05-23T13:33:01.617Z,13.40
2023-05-23T13:35:28.649Z,13.60
2023-05-23T13:37:55.475Z,13.60
2023-05-23T13:40:23.451Z,13.50
2023-05-23T13:42:51.246Z,13.20
2023-05-23T13:45:19.053Z,13.30
2023-05-23T13:47:46.422Z,13.40
2023-05-23T13:50:13.130Z,13.30
2023-05-23T13:52:43.483Z,13.40
2023-05-23T13:55:12.122Z,13.60
2023-05-23T13:57:38.811Z,13.70
2023-05-23T14:00:06.085Z,13.30
2023-05-23T14:02:34.689Z,13.50
2023-05-23T14:05:01.670Z,13.90
2023-05-23T14:07:28.497Z,14.20
2023-05-23T14:09:55.687Z,14.60
2023-05-23T14:12:22.340Z,14.00
2023-05-23T14:14:49.005Z,14.00
2023-05-23T14:17:16.573Z,14.20
2023-05-23T14:19:43.725Z,14.20
2023-05-23T14:22:11.354Z,14.30
2023-05-23T14:24:38.262Z,14.40
2023-05-23T14:27:05.073Z,14.40
2023-05-23T14:29:31.810Z,14.20
2023-05-23T14:32:00.593Z,14.10
2023-05-23T14:34:27.361Z,14.30
2023-05-23T14:36:54.158Z,14.70
2023-05-23T14:39:20.884Z,14.10
2023-05-23T14:41:47.546Z,13.70
2023-05-23T14:44:14.627Z,13.50
2023-05-23T14:46:42.699Z,13.80
2023-05-23T14:49:09.454Z,14.30
2023-05-23T14:54:09.422Z,14.00
2023-05-23T14:56:37.588Z,13.90
2023-05-23T14:59:05.379Z,13.80
2023-05-23T15:01:32.176Z,14.20
2023-05-23T15:03:58.900Z,14.60
2023-05-23T15:06:26.447Z,15.00
2023-05-23T15:08:53.361Z,14.70
2023-05-23T15:11:20.063Z,14.30
2023-05-23T15:13:46.724Z,14.10
2023-05-23T15:16:13.419Z,14.10
2023-05-23T15:18:42.040Z,14.20
2023-05-23T15:21:09.115Z,14.30
2023-05-23T15:23:36.499Z,14.10
2023-05-23T15:26:03.259Z,14.00
2023-05-23T15:28:29.901Z,13.80
2023-05-23T15:30:57.090Z,13.60
2023-05-23T15:33:23.905Z,13.50
2023-05-23T15:35:51.116Z,13.40
2023-05-23T15:38:19.251Z,13.30
2023-05-23T15:40:48.604Z,13.20
2023-05-23T15:43:15.387Z,13.20
2023-05-23T15:45:42.318Z,13.30
2023-05-23T15:48:09.242Z,13.20
2023-05-23T15:50:36.044Z,13.20
2023-05-23T15:53:02.776Z,13.20
2023-05-23T15:55:29.631Z,13.30
2023-05-23T15:57:56.470Z,13.30
2023-05-23T16:00:23.637Z,13.30
2023-05-23T16:02:50.308Z,13.30
2023-05-23T16:05:17.127Z,13.30
2023-05-23T16:07:44.159Z,13.40
2023-05-23T16:10:11.188Z,13.50
2023-05-23T16:12:37.855Z,13.60
2023-05-23T16:15:05.605Z,13.50
2023-05-23T16:17:32.283Z,13.40
2023-05-23T16:20:01.505Z,13.20
2023-05-23T16:22:28.241Z,13.10
2023-05-23T16:24:55.590Z,13.00
2023-05-23T16:27:23.752Z,12.90
2023-05-23T16:29:50.430Z,12.90
2023-05-23T16:32:17.089Z,13.00
2023-05-23T16:34:48.086Z,13.00
2023-05-23T16:37:17.779Z,12.90
2023-05-23T16:39:44.849Z,12.90
2023-05-23T16:42:11.553Z,13.00
2023-05-23T16:44:38.407Z,13.10
2023-05-23T16:47:05.268Z,13.10
2023-05-23T16:49:31.926Z,13.00
2023-05-23T16:51:58.631Z,13.10
2023-05-23T16:54:25.299Z,13.10
2023-05-23T16:56:51.937Z,13.20
2023-05-23T16:59:18.570Z,13.20
2023-05-23T17:01:45.374Z,13.30
2023-05-23T17:04:12.115Z,13.30
2023-05-23T17:06:38.813Z,13.30
2023-05-23T17:09:05.488Z,13.20
2023-05-23T17:11:32.265Z,13.00
2023-05-23T17:13:58.927Z,13.10
2023-05-23T17:16:25.669Z,13.00
2023-05-23T17:18:52.496Z,13.00
2023-05-23T17:21:19.209Z,13.00
2023-05-23T17:23:45.869Z,13.10
2023-05-23T17:26:13.111Z,13.10
2023-05-23T17:28:39.788Z,13.10
2023-05-23T17:31:06.568Z,13.00
2023-05-23T17:33:33.441Z,13.00
2023-05-23T17:36:00.198Z,13.00
2023-05-23T17:38:27.000Z,12.90
2023-05-23T17:40:53.774Z,12.80
2023-05-23T17:43:20.719Z,12.70
2023-05-23T17:45:47.462Z,12.60
2023-05-23T17:48:17.246Z,12.70
2023-05-23T17:50:44.809Z,12.70
2023-05-23T17:53:11.492Z,12.80
2023-05-23T17:55:38.365Z,12.90
2023-05-23T17:58:05.060Z,12.80
2023-05-23T18:00:31.724Z,12.70
2023-05-23T18:02:58.615Z,12.70
2023-05-23T18:05:25.608Z,12.60
2023-05-23T18:07:52.518Z,12.50
2023-05-23T18:10:19.458Z,12.30
2023-05-23T18:12:46.512Z,12.30
2023-05-23T18:15:13.259Z,12.20
2023-05-23T18:17:40.332Z,12.10
2023-05-23T18:20:07.807Z,12.00
2023-05-23T18:22:34.648Z,12.00
2023-05-23T18:25:01.352Z,11.90
2023-05-23T18:27:28.042Z,11.90
2023-05-23T18:29:54.899Z,11.80
2023-05-23T18:32:21.761Z,11.80
2023-05-23T18:34:48.509Z,11.80
2023-05-23T18:37:15.461Z,11.70
2023-05-23T18:39:42.959Z,11.70
2023-05-23T18:42:09.672Z,11.60
2023-05-23T18:44:36.468Z,11.60
2023-05-23T18:47:03.270Z,11.50
2023-05-23T18:49:29.924Z,11.40
2023-05-23T18:51:57.063Z,11.40
2023-05-23T18:54:23.871Z,11.30
2023-05-23T18:56:50.537Z,11.20
2023-05-23T18:59:17.534Z,11.20
2023-05-23T19:01:44.276Z,11.10
2023-05-23T19:04:11.131Z,11.00
2023-05-23T19:06:37.865Z,10.90
2023-05-23T19:09:09.372Z,10.90
2023-05-23T19:11:37.365Z,10.80
2023-05-23T19:14:04.069Z,10.90
2023-05-23T19:16:31.498Z,10.80
2023-05-23T19:18:58.482Z,10.70
2023-05-23T19:21:25.459Z,10.60
2023-05-23T19:23:52.220Z,10.50
2023-05-23T19:26:20.494Z,10.40
2023-05-23T19:28:47.394Z,10.50
2023-05-23T19:31:14.144Z,10.40
2023-05-23T19:33:40.841Z,10.30
2023-05-23T19:36:08.455Z,10.20
2023-05-23T19:38:35.282Z,10.20
2023-05-23T19:41:01.934Z,10.10
2023-05-23T19:43:28.601Z,10.00
2023-05-23T19:45:55.248Z,10.00
2023-05-23T19:48:22.341Z,9.90
2023-05-23T19:50:48.968Z,9.90
2023-05-23T19:53:15.724Z,9.90
2023-05-23T19:55:42.713Z,9.80
2023-05-23T19:58:09.435Z,9.80
2023-05-23T20:00:36.491Z,9.70
2023-05-23T20:03:04.299Z,9.80
2023-05-23T20:05:31.306Z,9.70
2023-05-23T20:07:58.188Z,9.70
2023-05-23T20:10:25.927Z,9.60
2023-05-23T20:12:52.608Z,9.60
2023-05-23T20:15:31.152Z,9.50
2023-05-23T20:18:05.745Z,9.50
2023-05-23T20:20:32.462Z,9.40
2023-05-23T20:22:59.195Z,9.30
2023-05-23T20:25:28.302Z,9.20
2023-05-23T20:27:56.479Z,9.20
2023-05-23T20:30:23.508Z,9.20
2023-05-23T20:32:53.414Z,9.20
2023-05-23T20:35:22.016Z,9.10
2023-05-23T20:37:51.538Z,9.10
2023-05-23T20:40:18.722Z,9.00
2023-05-23T20:42:45.750Z,8.90
2023-05-23T20:45:12.504Z,8.80
2023-05-23T20:47:41.511Z,8.80
2023-05-23T20:50:10.188Z,8.70
2023-05-23T20:52:39.119Z,8.70
2023-05-23T20:55:06.951Z,8.60
2023-05-23T20:57:36.371Z,8.50
2023-05-23T21:00:10.874Z,8.50
2023-05-23T21:02:38.625Z,8.50
2023-05-23T21:05:06.920Z,8.40
2023-05-23T21:07:33.856Z,8.40
2023-05-23T21:10:00.575Z,8.40
2023-05-23T21:12:27.782Z,8.40
2023-05-23T21:14:56.835Z,8.40
2023-05-23T21:17:23.890Z,8.30
2023-05-23T21:19:51.009Z,8.20
2023-05-23T21:22:17.635Z,8.10
2023-05-23T21:24:44.404Z,8.00
2023-05-23T21:27:11.365Z,8.10
2023-05-23T21:29:38.085Z,8.00
2023-05-23T21:32:05.190Z,8.00
2023-05-23T21:34:32.001Z,7.90
2023-05-23T21:36:58.715Z,7.80
2023-05-23T21:39:27.371Z,7.80
2023-05-23T21:41:57.535Z,7.80
2023-05-23T21:44:24.208Z,7.70
2023-05-23T21:46:50.986Z,7.60
2023-05-23T21:49:17.748Z,7.60
2023-05-23T21:51:44.477Z,7.60
2023-05-23T21:54:11.172Z,7.60
2023-05-23T21:56:37.830Z,7.50
2023-05-23T21:59:04.468Z,7.50
2023-05-23T22:01:31.922Z,7.50
2023-05-23T22:03:58.651Z,7.50
2023-05-23T22:06:26.030Z,7.40
2023-05-23T22:08:52.951Z,7.30
2023-05-23T22:11:19.619Z,7.20
2023-05-23T22:13:46.555Z,7.20
2023-05-23T22:16:13.310Z,7.20
2023-05-23T22:18:51.110Z,7.10
2023-05-23T22:21:18.413Z,7.10
2023-05-23T22:23:45.272Z,7.10
2023-05-23T22:26:12.666Z,7.00
2023-05-23T22:28:39.552Z,6.90
2023-05-23T22:31:06.502Z,7.00
2023-05-23T22:33:33.288Z,6.90
2023-05-23T22:36:00.061Z,6.90
2023-05-23T22:38:26.980Z,6.90
2023-05-23T22:40:53.631Z,6.90
2023-05-23T22:43:21.664Z,6.80
2023-05-23T22:45:49.968Z,6.90
2023-05-23T22:48:19.642Z,6.90
2023-05-23T22:50:46.776Z,6.80
2023-05-23T22:53:16.596Z,6.80
2023-05-23T22:55:43.239Z,6.80
2023-05-23T22:58:10.540Z,6.80
2023-05-23T23:00:37.354Z,6.70
2023-05-23T23:03:04.307Z,6.60
2023-05-23T23:05:31.471Z,6.60
2023-05-23T23:07:58.423Z,6.50
2023-05-23T23:10:25.252Z,6.50
2023-05-23T23:12:51.877Z,6.40
2023-05-23T23:15:18.568Z,6.40
2023-05-23T23:17:45.619Z,6.30
2023-05-23T23:20:12.792Z,6.30
2023-05-23T23:22:39.846Z,6.40
2023-05-23T23:25:10.488Z,6.30
2023-05-23T23:27:38.273Z,6.40
2023-05-23T23:30:06.481Z,6.40
2023-05-23T23:32:34.326Z,6.30
2023-05-23T23:35:01.521Z,6.20
2023-05-23T23:37:28.246Z,6.20
2023-05-23T23:39:54.944Z,6.30
2023-05-23T23:42:21.716Z,6.30
2023-05-23T23:44:48.492Z,6.20
2023-05-23T23:47:15.351Z,6.20
2023-05-23T23:49:42.126Z,6.10
2023-05-23T23:52:08.937Z,6.20
2023-05-23T23:54:35.884Z,6.20
2023-05-23T23:57:02.663Z,6.20
2023-05-23T23:59:29.315Z,6.10
